sensor_id;sensor_type;location;lat;lon;timestamp;pressure;altitude;pressure_sealevel;temperature;humidity
9415;BME280;4746;35.664;139.738;2023-04-01T00:01:14;100514.59;;;20.96;38.64
9415;BME280;4746;35.664;139.738;2023-04-01T00:03:43;100515.19;;;21.04;38.26
9415;BME280;4746;35.664;139.738;2023-04-01T00:06:15;100512.22;;;21.16;38.26
9415;BME280;4746;35.664;139.738;2023-04-01T00:08:44;100509.44;;;21.22;38.17
9415;BME280;4746;35.664;139.738;2023-04-01T00:11:11;100515.41;;;21.25;37.82
9415;BME280;4746;35.664;139.738;2023-04-01T00:13:39;100517.88;;;21.30;37.55
9415;BME280;4746;35.664;139.738;2023-04-01T00:16:08;100506.41;;;21.35;37.31
9415;BME280;4746;35.664;139.738;2023-04-01T00:18:36;100512.06;;;21.48;37.01
9415;BME280;4746;35.664;139.738;2023-04-01T00:21:04;100519.91;;;21.48;37.01
9415;BME280;4746;35.664;139.738;2023-04-01T00:23:32;100521.38;;;21.56;37.00
9415;BME280;4746;35.664;139.738;2023-04-01T00:26:03;100515.91;;;21.64;36.61
9415;BME280;4746;35.664;139.738;2023-04-01T00:28:34;100518.25;;;21.71;36.60
9415;BME280;4746;35.664;139.738;2023-04-01T00:31:08;100521.47;;;21.79;36.36
9415;BME280;4746;35.664;139.738;2023-04-01T00:33:36;100517.13;;;21.79;35.62
9415;BME280;4746;35.664;139.738;2023-04-01T00:36:12;100517.91;;;21.81;35.42
9415;BME280;4746;35.664;139.738;2023-04-01T00:38:42;100518.03;;;21.78;35.11
9415;BME280;4746;35.664;139.738;2023-04-01T00:41:12;100515.38;;;21.80;35.32
9415;BME280;4746;35.664;139.738;2023-04-01T00:43:47;100516.94;;;21.85;35.56
9415;BME280;4746;35.664;139.738;2023-04-01T00:46:15;100515.91;;;21.89;35.30
9415;BME280;4746;35.664;139.738;2023-04-01T00:48:54;100513.78;;;22.00;35.45
9415;BME280;4746;35.664;139.738;2023-04-01T00:51:29;100510.06;;;22.07;35.45
9415;BME280;4746;35.664;139.738;2023-04-01T00:53:59;100512.50;;;22.12;35.89
9415;BME280;4746;35.664;139.738;2023-04-01T00:57:07;100514.59;;;22.27;35.96
9415;BME280;4746;35.664;139.738;2023-04-01T00:59:43;100509.19;;;22.33;35.86
9415;BME280;4746;35.664;139.738;2023-04-01T01:02:15;100495.97;;;22.37;36.13
9415;BME280;4746;35.664;139.738;2023-04-01T01:04:43;100496.50;;;22.45;36.11
9415;BME280;4746;35.664;139.738;2023-04-01T01:12:50;100496.72;;;22.63;36.77
9415;BME280;4746;35.664;139.738;2023-04-01T01:18:19;100481.19;;;22.82;36.74
9415;BME280;4746;35.664;139.738;2023-04-01T01:21:38;100479.53;;;22.79;37.32
9415;BME280;4746;35.664;139.738;2023-04-01T01:27:13;100466.41;;;23.04;37.99
9415;BME280;4746;35.664;139.738;2023-04-01T01:30:20;100474.66;;;23.14;38.41
9415;BME280;4746;35.664;139.738;2023-04-01T01:35:54;100465.31;;;23.30;38.89
9415;BME280;4746;35.664;139.738;2023-04-01T01:38:29;100466.03;;;23.34;39.35
9415;BME280;4746;35.664;139.738;2023-04-01T01:40:59;100462.06;;;23.45;39.46
9415;BME280;4746;35.664;139.738;2023-04-01T01:43:44;100455.53;;;23.55;39.49
9415;BME280;4746;35.664;139.738;2023-04-01T01:46:23;100456.25;;;23.59;39.50
9415;BME280;4746;35.664;139.738;2023-04-01T01:48:53;100450.75;;;23.65;39.99
9415;BME280;4746;35.664;139.738;2023-04-01T01:51:23;100448.75;;;23.71;39.79
9415;BME280;4746;35.664;139.738;2023-04-01T01:53:51;100451.78;;;23.82;39.40
9415;BME280;4746;35.664;139.738;2023-04-01T01:56:22;100453.16;;;23.90;39.12
9415;BME280;4746;35.664;139.738;2023-04-01T01:59:03;100452.63;;;24.02;38.66
9415;BME280;4746;35.664;139.738;2023-04-01T02:01:39;100451.50;;;24.08;38.23
9415;BME280;4746;35.664;139.738;2023-04-01T02:04:09;100451.38;;;24.11;38.38
9415;BME280;4746;35.664;139.738;2023-04-01T02:06:47;100450.97;;;24.20;37.89
9415;BME280;4746;35.664;139.738;2023-04-01T02:09:19;100447.06;;;24.28;37.96
9415;BME280;4746;35.664;139.738;2023-04-01T02:11:58;100439.56;;;24.41;38.09
9415;BME280;4746;35.664;139.738;2023-04-01T02:15:08;100435.47;;;24.53;37.69
9415;BME280;4746;35.664;139.738;2023-04-01T02:17:43;100432.78;;;24.55;38.00
9415;BME280;4746;35.664;139.738;2023-04-01T02:20:22;100429.59;;;24.67;37.84
9415;BME280;4746;35.664;139.738;2023-04-01T02:22:56;100425.53;;;24.78;37.63
9415;BME280;4746;35.664;139.738;2023-04-01T02:25:33;100419.69;;;24.90;37.17
9415;BME280;4746;35.664;139.738;2023-04-01T02:28:05;100416.56;;;25.01;37.05
9415;BME280;4746;35.664;139.738;2023-04-01T02:30:36;100408.84;;;25.16;36.97
9415;BME280;4746;35.664;139.738;2023-04-01T02:33:06;100411.00;;;25.25;36.30
9415;BME280;4746;35.664;139.738;2023-04-01T02:35:36;100408.56;;;25.39;36.44
9415;BME280;4746;35.664;139.738;2023-04-01T02:38:05;100407.94;;;25.51;36.18
9415;BME280;4746;35.664;139.738;2023-04-01T02:40:48;100402.59;;;25.69;36.00
9415;BME280;4746;35.664;139.738;2023-04-01T02:43:17;100403.19;;;25.76;35.66
9415;BME280;4746;35.664;139.738;2023-04-01T02:45:48;100397.91;;;25.93;35.14
9415;BME280;4746;35.664;139.738;2023-04-01T02:48:16;100395.47;;;26.05;35.00
9415;BME280;4746;35.664;139.738;2023-04-01T02:50:44;100402.78;;;26.15;34.37
9415;BME280;4746;35.664;139.738;2023-04-01T02:53:11;100397.69;;;26.12;33.83
9415;BME280;4746;35.664;139.738;2023-04-01T02:55:39;100400.06;;;26.17;34.11
9415;BME280;4746;35.664;139.738;2023-04-01T02:58:07;100387.22;;;26.28;33.57
9415;BME280;4746;35.664;139.738;2023-04-01T03:00:34;100381.84;;;26.46;32.74
9415;BME280;4746;35.664;139.738;2023-04-01T03:03:02;100382.69;;;26.62;32.24
9415;BME280;4746;35.664;139.738;2023-04-01T03:05:31;100381.47;;;26.83;32.26
9415;BME280;4746;35.664;139.738;2023-04-01T03:07:59;100380.47;;;27.01;31.76
9415;BME280;4746;35.664;139.738;2023-04-01T03:10:27;100382.56;;;27.25;31.30
9415;BME280;4746;35.664;139.738;2023-04-01T03:12:54;100384.50;;;27.37;31.43
9415;BME280;4746;35.664;139.738;2023-04-01T03:15:22;100372.16;;;27.38;31.75
9415;BME280;4746;35.664;139.738;2023-04-01T03:17:49;100373.50;;;27.58;31.40
9415;BME280;4746;35.664;139.738;2023-04-01T03:20:18;100366.13;;;27.79;31.52
9415;BME280;4746;35.664;139.738;2023-04-01T03:22:46;100371.34;;;28.08;31.51
9415;BME280;4746;35.664;139.738;2023-04-01T03:25:14;100364.75;;;28.29;31.26
9415;BME280;4746;35.664;139.738;2023-04-01T03:27:41;100352.78;;;28.37;31.16
9415;BME280;4746;35.664;139.738;2023-04-01T03:30:10;100352.38;;;28.57;31.15
9415;BME280;4746;35.664;139.738;2023-04-01T03:32:37;100348.75;;;28.86;30.55
9415;BME280;4746;35.664;139.738;2023-04-01T03:35:05;100344.19;;;29.14;29.61
9415;BME280;4746;35.664;139.738;2023-04-01T03:37:33;100346.09;;;29.25;28.97
9415;BME280;4746;35.664;139.738;2023-04-01T03:40:00;100333.88;;;29.24;28.81
9415;BME280;4746;35.664;139.738;2023-04-01T03:42:29;100330.16;;;29.26;28.81
9415;BME280;4746;35.664;139.738;2023-04-01T03:44:58;100324.63;;;29.43;28.58
9415;BME280;4746;35.664;139.738;2023-04-01T03:47:25;100315.44;;;29.73;28.74
9415;BME280;4746;35.664;139.738;2023-04-01T03:49:53;100319.03;;;29.97;29.14
9415;BME280;4746;35.664;139.738;2023-04-01T03:52:22;100312.13;;;30.20;29.16
9415;BME280;4746;35.664;139.738;2023-04-01T03:54:49;100310.38;;;30.31;29.35
9415;BME280;4746;35.664;139.738;2023-04-01T03:57:17;100313.56;;;30.48;29.51
9415;BME280;4746;35.664;139.738;2023-04-01T03:59:44;100306.69;;;30.69;29.47
9415;BME280;4746;35.664;139.738;2023-04-01T04:02:12;100301.72;;;30.88;29.41
9415;BME280;4746;35.664;139.738;2023-04-01T04:04:39;100299.63;;;31.04;28.88
9415;BME280;4746;35.664;139.738;2023-04-01T04:07:08;100297.09;;;31.26;28.60
9415;BME280;4746;35.664;139.738;2023-04-01T04:09:35;100286.69;;;31.57;28.43
9415;BME280;4746;35.664;139.738;2023-04-01T04:12:03;100284.38;;;31.85;27.40
9415;BME280;4746;35.664;139.738;2023-04-01T04:14:32;100277.41;;;31.95;27.40
9415;BME280;4746;35.664;139.738;2023-04-01T04:17:00;100276.00;;;32.13;26.62
9415;BME280;4746;35.664;139.738;2023-04-01T04:19:32;100278.22;;;32.40;26.69
9415;BME280;4746;35.664;139.738;2023-04-01T04:22:02;100263.09;;;32.51;26.29
9415;BME280;4746;35.664;139.738;2023-04-01T04:24:29;100271.00;;;32.73;25.48
9415;BME280;4746;35.664;139.738;2023-04-01T04:26:57;100271.91;;;32.94;25.29
9415;BME280;4746;35.664;139.738;2023-04-01T04:29:24;100256.50;;;33.08;24.45
9415;BME280;4746;35.664;139.738;2023-04-01T04:31:52;100261.31;;;33.14;24.62
9415;BME280;4746;35.664;139.738;2023-04-01T04:34:20;100256.75;;;33.25;24.26
9415;BME280;4746;35.664;139.738;2023-04-01T04:36:49;100255.13;;;33.34;24.15
9415;BME280;4746;35.664;139.738;2023-04-01T04:39:19;100262.47;;;33.41;23.73
9415;BME280;4746;35.664;139.738;2023-04-01T04:41:47;100256.56;;;33.58;23.76
9415;BME280;4746;35.664;139.738;2023-04-01T04:44:14;100251.78;;;33.82;23.05
9415;BME280;4746;35.664;139.738;2023-04-01T04:46:42;100255.06;;;33.95;23.26
9415;BME280;4746;35.664;139.738;2023-04-01T04:49:09;100253.50;;;34.02;23.16
9415;BME280;4746;35.664;139.738;2023-04-01T04:51:37;100256.09;;;34.13;22.51
9415;BME280;4746;35.664;139.738;2023-04-01T04:54:06;100253.66;;;34.49;22.32
9415;BME280;4746;35.664;139.738;2023-04-01T04:56:34;100255.94;;;35.10;22.12
9415;BME280;4746;35.664;139.738;2023-04-01T04:59:02;100240.16;;;35.81;21.01
9415;BME280;4746;35.664;139.738;2023-04-01T05:01:30;100243.81;;;36.34;20.90
9415;BME280;4746;35.664;139.738;2023-04-01T05:03:58;100242.59;;;36.73;20.47
9415;BME280;4746;35.664;139.738;2023-04-01T05:06:25;100236.63;;;36.96;20.50
9415;BME280;4746;35.664;139.738;2023-04-01T05:08:56;100234.91;;;37.30;19.99
9415;BME280;4746;35.664;139.738;2023-04-01T05:11:24;100219.69;;;37.55;19.96
9415;BME280;4746;35.664;139.738;2023-04-01T05:13:53;100234.25;;;37.61;19.75
9415;BME280;4746;35.664;139.738;2023-04-01T05:16:21;100236.34;;;37.75;19.99
9415;BME280;4746;35.664;139.738;2023-04-01T05:18:49;100227.94;;;38.03;19.43
9415;BME280;4746;35.664;139.738;2023-04-01T05:21:17;100240.34;;;38.04;18.98
9415;BME280;4746;35.664;139.738;2023-04-01T05:23:44;100240.25;;;37.80;19.32
9415;BME280;4746;35.664;139.738;2023-04-01T05:26:14;100236.47;;;37.40;19.79
9415;BME280;4746;35.664;139.738;2023-04-01T05:28:42;100239.97;;;37.41;19.81
9415;BME280;4746;35.664;139.738;2023-04-01T05:31:10;100235.16;;;38.60;18.67
9415;BME280;4746;35.664;139.738;2023-04-01T05:33:37;100231.53;;;40.17;16.83
9415;BME280;4746;35.664;139.738;2023-04-01T05:36:16;100223.16;;;41.46;16.78
9415;BME280;4746;35.664;139.738;2023-04-01T05:38:44;100226.41;;;42.13;16.03
9415;BME280;4746;35.664;139.738;2023-04-01T05:41:14;100230.88;;;42.77;15.61
9415;BME280;4746;35.664;139.738;2023-04-01T05:43:42;100231.94;;;43.31;15.44
9415;BME280;4746;35.664;139.738;2023-04-01T05:46:10;100230.25;;;43.84;14.95
9415;BME280;4746;35.664;139.738;2023-04-01T05:48:38;100227.09;;;44.21;14.53
9415;BME280;4746;35.664;139.738;2023-04-01T05:51:05;100227.97;;;44.34;13.97
9415;BME280;4746;35.664;139.738;2023-04-01T05:53:33;100230.53;;;44.55;13.99
9415;BME280;4746;35.664;139.738;2023-04-01T05:56:04;100226.88;;;44.95;14.18
9415;BME280;4746;35.664;139.738;2023-04-01T05:58:32;100227.66;;;45.28;13.54
9415;BME280;4746;35.664;139.738;2023-04-01T06:01:06;100232.66;;;45.50;14.03
9415;BME280;4746;35.664;139.738;2023-04-01T06:03:34;100228.91;;;45.45;13.36
9415;BME280;4746;35.664;139.738;2023-04-01T06:06:03;100236.84;;;45.46;13.31
9415;BME280;4746;35.664;139.738;2023-04-01T06:08:31;100243.25;;;45.64;13.13
9415;BME280;4746;35.664;139.738;2023-04-01T06:11:10;100231.78;;;45.63;12.99
9415;BME280;4746;35.664;139.738;2023-04-01T06:14:13;100243.03;;;45.79;13.19
9415;BME280;4746;35.664;139.738;2023-04-01T06:19:53;100229.91;;;46.26;12.81
9415;BME280;4746;35.664;139.738;2023-04-01T06:25:42;100229.44;;;46.42;12.66
9415;BME280;4746;35.664;139.738;2023-04-01T06:37:36;100224.28;;;46.28;13.30
9415;BME280;4746;35.664;139.738;2023-04-01T06:40:55;100224.88;;;46.30;12.57
9415;BME280;4746;35.664;139.738;2023-04-01T06:47:00;100220.03;;;45.94;13.05
9415;BME280;4746;35.664;139.738;2023-04-01T06:49:49;100212.56;;;45.83;13.27
9415;BME280;4746;35.664;139.738;2023-04-01T06:56:04;100225.94;;;45.65;13.26
9415;BME280;4746;35.664;139.738;2023-04-01T06:58:27;100231.38;;;45.59;13.68
9415;BME280;4746;35.664;139.738;2023-04-01T07:01:04;100227.69;;;45.34;13.55
9415;BME280;4746;35.664;139.738;2023-04-01T07:03:53;100219.97;;;45.25;13.73
9415;BME280;4746;35.664;139.738;2023-04-01T07:06:40;100220.38;;;45.28;13.80
9415;BME280;4746;35.664;139.738;2023-04-01T07:09:19;100215.81;;;45.22;13.91
9415;BME280;4746;35.664;139.738;2023-04-01T07:11:48;100224.75;;;44.90;13.84
9415;BME280;4746;35.664;139.738;2023-04-01T07:14:35;100216.16;;;44.48;14.18
9415;BME280;4746;35.664;139.738;2023-04-01T07:17:33;100214.84;;;44.25;14.42
9415;BME280;4746;35.664;139.738;2023-04-01T07:20:48;100219.38;;;44.18;14.28
9415;BME280;4746;35.664;139.738;2023-04-01T07:23:38;100218.09;;;44.14;14.81
9415;BME280;4746;35.664;139.738;2023-04-01T07:26:22;100219.66;;;43.89;14.73
9415;BME280;4746;35.664;139.738;2023-04-01T07:28:53;100215.59;;;43.72;14.96
9415;BME280;4746;35.664;139.738;2023-04-01T07:34:26;100209.66;;;42.95;15.40
9415;BME280;4746;35.664;139.738;2023-04-01T07:49:21;100226.25;;;40.61;16.56
9415;BME280;4746;35.664;139.738;2023-04-01T07:52:01;100230.66;;;40.32;17.07
9415;BME280;4746;35.664;139.738;2023-04-01T08:09:37;100239.75;;;34.27;22.00
9415;BME280;4746;35.664;139.738;2023-04-01T08:21:38;100255.88;;;30.41;27.13
9415;BME280;4746;35.664;139.738;2023-04-01T08:24:38;100240.94;;;29.68;27.61
9415;BME280;4746;35.664;139.738;2023-04-01T08:30:23;100262.19;;;28.65;29.84
9415;BME280;4746;35.664;139.738;2023-04-01T08:33:21;100261.84;;;28.16;30.66
9415;BME280;4746;35.664;139.738;2023-04-01T08:36:08;100270.69;;;27.75;31.42
9415;BME280;4746;35.664;139.738;2023-04-01T08:39:02;100267.69;;;27.38;32.24
9415;BME280;4746;35.664;139.738;2023-04-01T08:42:04;100286.53;;;27.03;32.49
9415;BME280;4746;35.664;139.738;2023-04-01T08:50:58;100276.22;;;25.92;34.16
9415;BME280;4746;35.664;139.738;2023-04-01T08:56:29;100282.09;;;25.32;34.72
9415;BME280;4746;35.664;139.738;2023-04-01T09:13:48;100323.53;;;24.00;36.25
9415;BME280;4746;35.664;139.738;2023-04-01T09:16:23;100315.53;;;23.85;35.59
9415;BME280;4746;35.664;139.738;2023-04-01T09:22:56;100314.19;;;23.57;35.39
9415;BME280;4746;35.664;139.738;2023-04-01T09:47:05;100340.47;;;22.93;35.09
9415;BME280;4746;35.664;139.738;2023-04-01T10:05:19;100354.28;;;22.53;33.44
9415;BME280;4746;35.664;139.738;2023-04-01T10:19:30;100378.09;;;22.46;32.29
9415;BME280;4746;35.664;139.738;2023-04-01T10:22:29;100386.78;;;22.46;32.53
9415;BME280;4746;35.664;139.738;2023-04-01T10:29:09;100390.81;;;22.55;32.65
9415;BME280;4746;35.664;139.738;2023-04-01T10:38:19;100408.72;;;22.64;33.47
9415;BME280;4746;35.664;139.738;2023-04-01T10:53:25;100437.59;;;22.61;35.98
9415;BME280;4746;35.664;139.738;2023-04-01T11:11:04;100447.31;;;22.35;38.04
9415;BME280;4746;35.664;139.738;2023-04-01T11:23:33;100450.81;;;22.09;38.68
9415;BME280;4746;35.664;139.738;2023-04-01T11:50:43;100451.41;;;21.68;38.98
9415;BME280;4746;35.664;139.738;2023-04-01T11:56:37;100456.03;;;21.61;39.49
9415;BME280;4746;35.664;139.738;2023-04-01T11:59:39;100461.34;;;21.58;39.42
9415;BME280;4746;35.664;139.738;2023-04-01T12:09:10;100452.91;;;21.50;40.31
9415;BME280;4746;35.664;139.738;2023-04-01T12:23:55;100453.31;;;21.38;40.18
9415;BME280;4746;35.664;139.738;2023-04-01T12:30:21;100476.09;;;21.31;40.09
9415;BME280;4746;35.664;139.738;2023-04-01T12:54:18;100512.47;;;21.36;39.76
9415;BME280;4746;35.664;139.738;2023-04-01T12:57:36;100512.34;;;21.39;39.46
9415;BME280;4746;35.664;139.738;2023-04-01T13:12:36;100514.50;;;21.26;38.99
9415;BME280;4746;35.664;139.738;2023-04-01T13:18:20;100506.78;;;21.23;39.03
9415;BME280;4746;35.664;139.738;2023-04-01T13:21:04;100500.72;;;21.23;38.85
9415;BME280;4746;35.664;139.738;2023-04-01T13:24:09;100504.13;;;21.25;38.68
9415;BME280;4746;35.664;139.738;2023-04-01T13:32:56;100489.72;;;21.13;38.20
9415;BME280;4746;35.664;139.738;2023-04-01T13:45:14;100490.97;;;21.02;38.44
9415;BME280;4746;35.664;139.738;2023-04-01T13:54:47;100496.88;;;21.07;38.30
9415;BME280;4746;35.664;139.738;2023-04-01T14:04:03;100496.59;;;21.16;38.35
9415;BME280;4746;35.664;139.738;2023-04-01T14:12:31;100501.72;;;21.19;38.25
9415;BME280;4746;35.664;139.738;2023-04-01T14:15:52;100494.59;;;21.24;38.29
9415;BME280;4746;35.664;139.738;2023-04-01T14:31:24;100500.81;;;21.20;38.28
9415;BME280;4746;35.664;139.738;2023-04-01T14:40:26;100520.16;;;21.13;38.49
9415;BME280;4746;35.664;139.738;2023-04-01T14:54:32;100537.19;;;20.65;39.64
9415;BME280;4746;35.664;139.738;2023-04-01T14:57:26;100532.31;;;20.53;40.21
9415;BME280;4746;35.664;139.738;2023-04-01T15:00:17;100536.88;;;20.45;40.37
9415;BME280;4746;35.664;139.738;2023-04-01T15:06:30;100531.66;;;20.47;40.43
9415;BME280;4746;35.664;139.738;2023-04-01T15:12:30;100545.56;;;20.46;41.15
9415;BME280;4746;35.664;139.738;2023-04-01T15:21:42;100543.19;;;20.37;40.73
9415;BME280;4746;35.664;139.738;2023-04-01T15:45:26;100542.75;;;19.17;45.33
9415;BME280;4746;35.664;139.738;2023-04-01T15:54:19;100532.25;;;18.82;47.25
9415;BME280;4746;35.664;139.738;2023-04-01T15:57:25;100538.41;;;18.79;47.31
9415;BME280;4746;35.664;139.738;2023-04-01T16:00:41;100523.03;;;18.68;47.55
9415;BME280;4746;35.664;139.738;2023-04-01T16:03:38;100537.13;;;18.57;48.35
9415;BME280;4746;35.664;139.738;2023-04-01T16:06:59;100539.88;;;18.48;48.75
9415;BME280;4746;35.664;139.738;2023-04-01T16:10:04;100533.09;;;18.42;49.26
9415;BME280;4746;35.664;139.738;2023-04-01T16:13:11;100536.56;;;18.41;49.43
9415;BME280;4746;35.664;139.738;2023-04-01T16:18:37;100537.59;;;18.33;50.35
9415;BME280;4746;35.664;139.738;2023-04-01T16:24:30;100520.41;;;18.27;50.49
9415;BME280;4746;35.664;139.738;2023-04-01T16:33:20;100524.56;;;18.37;51.14
9415;BME280;4746;35.664;139.738;2023-04-01T16:36:05;100514.00;;;18.45;50.90
9415;BME280;4746;35.664;139.738;2023-04-01T16:39:04;100514.81;;;18.47;51.21
9415;BME280;4746;35.664;139.738;2023-04-01T16:42:31;100514.91;;;18.44;51.30
9415;BME280;4746;35.664;139.738;2023-04-01T16:44:30;100508.13;;;18.37;51.71
9415;BME280;4746;35.664;139.738;2023-04-01T16:47:12;100508.13;;;18.37;51.57
9415;BME280;4746;35.664;139.738;2023-04-01T16:50:15;100511.59;;;18.36;51.48
9415;BME280;4746;35.664;139.738;2023-04-01T16:56:20;100485.84;;;18.27;50.78
9415;BME280;4746;35.664;139.738;2023-04-01T16:59:07;100489.28;;;18.29;50.04
9415;BME280;4746;35.664;139.738;2023-04-01T17:01:57;100487.47;;;18.31;50.16
9415;BME280;4746;35.664;139.738;2023-04-01T17:07:52;100494.13;;;18.44;49.48
9415;BME280;4746;35.664;139.738;2023-04-01T17:10:53;100500.03;;;18.50;49.38
9415;BME280;4746;35.664;139.738;2023-04-01T17:19:46;100493.69;;;18.65;48.56
9415;BME280;4746;35.664;139.738;2023-04-01T17:35:35;100498.34;;;18.88;48.73
9415;BME280;4746;35.664;139.738;2023-04-01T17:41:36;100491.19;;;18.99;48.71
9415;BME280;4746;35.664;139.738;2023-04-01T17:44:31;100496.31;;;19.02;48.43
9415;BME280;4746;35.664;139.738;2023-04-01T17:47:39;100485.94;;;19.02;48.01
9415;BME280;4746;35.664;139.738;2023-04-01T18:11:25;100496.38;;;18.99;46.53
9415;BME280;4746;35.664;139.738;2023-04-01T18:21:23;100503.38;;;18.97;45.82
9415;BME280;4746;35.664;139.738;2023-04-01T18:24:22;100499.94;;;18.95;46.32
9415;BME280;4746;35.664;139.738;2023-04-01T18:27:30;100495.63;;;18.94;46.15
9415;BME280;4746;35.664;139.738;2023-04-01T18:30:18;100496.59;;;18.90;46.54
9415;BME280;4746;35.664;139.738;2023-04-01T18:33:04;100499.22;;;18.87;46.40
9415;BME280;4746;35.664;139.738;2023-04-01T18:36:03;100498.44;;;18.85;46.04
9415;BME280;4746;35.664;139.738;2023-04-01T18:38:40;100496.81;;;18.80;45.48
9415;BME280;4746;35.664;139.738;2023-04-01T18:50:07;100510.06;;;18.68;44.54
9415;BME280;4746;35.664;139.738;2023-04-01T18:52:44;100516.25;;;18.63;44.16
9415;BME280;4746;35.664;139.738;2023-04-01T18:55:40;100504.06;;;18.65;44.11
9415;BME280;4746;35.664;139.738;2023-04-01T18:58:31;100512.81;;;18.61;44.05
9415;BME280;4746;35.664;139.738;2023-04-01T19:01:10;100508.53;;;18.58;44.17
9415;BME280;4746;35.664;139.738;2023-04-01T19:09:47;100512.72;;;18.65;43.76
9415;BME280;4746;35.664;139.738;2023-04-01T19:12:29;100506.78;;;18.60;43.73
9415;BME280;4746;35.664;139.738;2023-04-01T19:18:02;100511.22;;;18.54;43.93
9415;BME280;4746;35.664;139.738;2023-04-01T19:21:06;100512.16;;;18.51;43.60
9415;BME280;4746;35.664;139.738;2023-04-01T19:26:32;100515.78;;;18.43;44.16
9415;BME280;4746;35.664;139.738;2023-04-01T19:32:16;100510.41;;;18.52;44.06
9415;BME280;4746;35.664;139.738;2023-04-01T19:38:49;100525.16;;;18.50;43.98
9415;BME280;4746;35.664;139.738;2023-04-01T19:44:27;100532.88;;;18.53;44.33
9415;BME280;4746;35.664;139.738;2023-04-01T19:52:59;100537.53;;;18.36;44.67
9415;BME280;4746;35.664;139.738;2023-04-01T19:56:07;100542.75;;;18.34;44.49
9415;BME280;4746;35.664;139.738;2023-04-01T19:58:59;100546.34;;;18.29;44.94
9415;BME280;4746;35.664;139.738;2023-04-01T20:04:52;100552.50;;;18.23;44.74
9415;BME280;4746;35.664;139.738;2023-04-01T20:07:37;100546.53;;;18.17;45.20
9415;BME280;4746;35.664;139.738;2023-04-01T20:13:17;100563.84;;;18.15;44.99
9415;BME280;4746;35.664;139.738;2023-04-01T20:16:07;100557.03;;;18.11;45.03
9415;BME280;4746;35.664;139.738;2023-04-01T20:19:00;100559.63;;;18.11;45.11
9415;BME280;4746;35.664;139.738;2023-04-01T20:21:42;100560.50;;;18.08;45.38
9415;BME280;4746;35.664;139.738;2023-04-01T20:24:26;100563.88;;;18.12;45.50
9415;BME280;4746;35.664;139.738;2023-04-01T20:30:43;100555.16;;;18.17;45.22
9415;BME280;4746;35.664;139.738;2023-04-01T20:33:44;100564.66;;;18.18;45.16
9415;BME280;4746;35.664;139.738;2023-04-01T20:51:39;100574.72;;;18.36;44.69
9415;BME280;4746;35.664;139.738;2023-04-01T20:57:16;100589.34;;;18.40;45.02
9415;BME280;4746;35.664;139.738;2023-04-01T21:17:16;100606.06;;;18.71;44.48
9415;BME280;4746;35.664;139.738;2023-04-01T21:26:07;100612.16;;;18.69;43.68
9415;BME280;4746;35.664;139.738;2023-04-01T21:35:40;100631.94;;;18.76;43.36
9415;BME280;4746;35.664;139.738;2023-04-01T21:47:52;100642.38;;;18.73;42.62
9415;BME280;4746;35.664;139.738;2023-04-01T21:59:56;100644.00;;;18.78;42.66
9415;BME280;4746;35.664;139.738;2023-04-01T22:02:51;100637.03;;;18.80;42.76
9415;BME280;4746;35.664;139.738;2023-04-01T22:05:36;100648.19;;;18.83;42.49
9415;BME280;4746;35.664;139.738;2023-04-01T22:17:02;100659.13;;;19.00;41.89
9415;BME280;4746;35.664;139.738;2023-04-01T22:20:15;100664.22;;;19.05;41.86
9415;BME280;4746;35.664;139.738;2023-04-01T22:26:16;100656.38;;;19.09;41.99
9415;BME280;4746;35.664;139.738;2023-04-01T22:32:26;100663.69;;;19.33;41.81
9415;BME280;4746;35.664;139.738;2023-04-01T22:38:25;100669.72;;;19.73;41.71
9415;BME280;4746;35.664;139.738;2023-04-01T22:41:13;100669.34;;;19.88;41.25
9415;BME280;4746;35.664;139.738;2023-04-01T22:43:45;100669.09;;;20.00;40.90
9415;BME280;4746;35.664;139.738;2023-04-01T22:46:47;100669.47;;;20.20;40.76
9415;BME280;4746;35.664;139.738;2023-04-01T22:49:43;100655.13;;;20.38;40.39
9415;BME280;4746;35.664;139.738;2023-04-01T22:52:38;100653.88;;;20.51;40.19
9415;BME280;4746;35.664;139.738;2023-04-01T22:55:30;100651.78;;;20.65;39.90
9415;BME280;4746;35.664;139.738;2023-04-01T22:58:09;100648.97;;;20.73;40.14
9415;BME280;4746;35.664;139.738;2023-04-01T23:01:19;100652.16;;;20.84;39.54
9415;BME280;4746;35.664;139.738;2023-04-01T23:03:51;100646.22;;;20.80;39.45
9415;BME280;4746;35.664;139.738;2023-04-01T23:06:47;100639.00;;;20.88;39.47
9415;BME280;4746;35.664;139.738;2023-04-01T23:09:34;100638.25;;;20.85;39.58
9415;BME280;4746;35.664;139.738;2023-04-01T23:12:19;100645.06;;;20.90;39.36
9415;BME280;4746;35.664;139.738;2023-04-01T23:14:49;100648.59;;;20.88;39.44
9415;BME280;4746;35.664;139.738;2023-04-01T23:17:46;100644.16;;;20.91;39.61
9415;BME280;4746;35.664;139.738;2023-04-01T23:23:48;100651.16;;;20.89;39.46
9415;BME280;4746;35.664;139.738;2023-04-01T23:29:02;100656.44;;;20.86;39.76
9415;BME280;4746;35.664;139.738;2023-04-01T23:31:38;100658.75;;;20.96;39.62
9415;BME280;4746;35.664;139.738;2023-04-01T23:36:44;100648.84;;;21.09;39.54
9415;BME280;4746;35.664;139.738;2023-04-01T23:42:13;100669.19;;;21.27;39.45
9415;BME280;4746;35.664;139.738;2023-04-01T23:44:43;100670.78;;;21.31;39.37
9415;BME280;4746;35.664;139.738;2023-04-01T23:47:21;100672.09;;;21.45;39.18
9415;BME280;4746;35.664;139.738;2023-04-01T23:49:54;100663.06;;;21.57;39.26
9415;BME280;4746;35.664;139.738;2023-04-01T23:52:39;100660.72;;;21.76;38.95
9415;BME280;4746;35.664;139.738;2023-04-01T23:55:31;100662.75;;;21.94;39.08
